Time;durP1;ratioP1;P1;durP2;ratioP2;P2;SDS_P1;SDS_P2;PMS_P1;PMS_P2;Temp;Humidity;BMP_temperature;BMP_pressure;BME280_temperature;BME280_humidity;BME280_pressure;Samples;Min_cycle;Max_cycle;Signal;HPM_P1;HPM_P2
2022/11/16 00:02:11;;;;;;;11.48;4.57;;;11.60;99.90;;;;;;4972926;28;20029;-67
2022/11/16 00:04:36;;;;;;;6.45;4.03;;;11.70;99.90;;;;;;4972621;28;20022;-67
2022/11/16 00:07:02;;;;;;;6.03;4.13;;;11.60;99.90;;;;;;4972893;28;20034;-67
2022/11/16 00:09:32;;;;;;;9.73;4.50;;;11.60;99.90;;;;;;4972633;28;20054;-67
2022/11/16 00:12:01;;;;;;;9.02;3.70;;;11.60;99.90;;;;;;4972575;28;20027;-67
2022/11/16 00:14:29;;;;;;;6.38;3.67;;;11.50;99.90;;;;;;4972376;28;20027;-67
2022/11/16 00:16:55;;;;;;;6.30;3.88;;;11.50;99.90;;;;;;4972565;28;20023;-67
2022/11/16 00:19:21;;;;;;;4.38;3.38;;;11.60;99.90;;;;;;4973834;28;20078;-67
2022/11/16 00:21:47;;;;;;;8.35;4.63;;;11.40;99.90;;;;;;4972903;28;20022;-67
2022/11/16 00:24:14;;;;;;;6.38;3.78;;;11.30;99.90;;;;;;4975258;28;20093;-67
2022/11/16 00:26:40;;;;;;;8.45;4.43;;;11.30;99.90;;;;;;4977226;28;20035;-67
2022/11/16 00:29:13;;;;;;;5.60;3.72;;;11.40;99.90;;;;;;4977185;28;20497;-67
2022/11/16 00:31:38;;;;;;;5.60;3.10;;;11.40;99.90;;;;;;4975992;28;20027;-67
2022/11/16 00:34:04;;;;;;;6.57;3.85;;;11.40;99.90;;;;;;4976644;28;20026;-67
2022/11/16 00:36:29;;;;;;;7.90;3.50;;;11.50;99.90;;;;;;4977103;28;20038;-67
2022/11/16 00:38:55;;;;;;;7.28;3.33;;;11.40;99.90;;;;;;4975838;28;20019;-67
2022/11/16 00:41:20;;;;;;;10.30;3.50;;;11.40;99.90;;;;;;4975675;28;20027;-67
2022/11/16 00:43:46;;;;;;;7.90;3.35;;;11.40;99.90;;;;;;4975719;28;20033;-67
2022/11/16 00:46:12;;;;;;;4.45;3.30;;;11.40;99.90;;;;;;4976836;28;20027;-67
2022/11/16 00:48:37;;;;;;;7.10;4.15;;;11.40;99.90;;;;;;4975734;28;20094;-67
2022/11/16 00:51:03;;;;;;;5.72;3.65;;;11.40;99.90;;;;;;4975481;28;20595;-67
2022/11/16 00:53:29;;;;;;;6.82;3.75;;;11.50;99.90;;;;;;4977101;28;20033;-67
2022/11/16 00:55:54;;;;;;;4.53;3.45;;;11.40;99.90;;;;;;4975802;28;20018;-67
2022/11/16 00:58:21;;;;;;;5.28;3.55;;;11.30;99.90;;;;;;4975417;28;20047;-67
2022/11/16 01:00:46;;;;;;;6.15;3.90;;;11.30;99.90;;;;;;4976889;28;20086;-67
2022/11/16 01:03:12;;;;;;;5.25;3.28;;;11.30;99.90;;;;;;4977064;28;20030;-67
2022/11/16 01:05:38;;;;;;;7.75;3.78;;;11.20;99.90;;;;;;4975252;28;20031;-67
2022/11/16 01:08:04;;;;;;;7.68;3.88;;;11.30;99.90;;;;;;4975217;28;20045;-67
2022/11/16 01:10:30;;;;;;;8.27;3.47;;;11.30;99.90;;;;;;4975188;28;20027;-67
2022/11/16 01:12:56;;;;;;;6.05;3.88;;;11.30;99.90;;;;;;4975814;28;20109;-67
2022/11/16 01:15:23;;;;;;;6.40;3.65;;;11.20;99.90;;;;;;4976304;28;20538;-67
2022/11/16 01:17:49;;;;;;;6.70;4.15;;;11.20;99.90;;;;;;4975087;28;20025;-67
2022/11/16 01:20:18;;;;;;;8.70;3.88;;;11.20;99.90;;;;;;4975138;28;20027;-67
2022/11/16 01:22:44;;;;;;;8.73;4.25;;;11.20;99.90;;;;;;4975068;28;20034;-67
2022/11/16 01:25:11;;;;;;;7.10;4.40;;;11.20;99.90;;;;;;4976136;28;20066;-67
2022/11/16 01:27:37;;;;;;;7.68;4.78;;;11.20;99.90;;;;;;4974942;28;20038;-67
2022/11/16 01:30:05;;;;;;;11.77;4.88;;;11.30;99.90;;;;;;4975124;28;20070;-67
2022/11/16 01:32:31;;;;;;;6.90;3.78;;;11.20;99.90;;;;;;4974838;28;20027;-67
2022/11/16 01:34:56;;;;;;;9.23;4.57;;;11.10;99.90;;;;;;4975326;28;20045;-67
2022/11/16 01:37:22;;;;;;;8.32;4.07;;;11.10;99.90;;;;;;4974850;28;20019;-67
2022/11/16 01:39:48;;;;;;;7.50;4.43;;;11.10;99.90;;;;;;4974765;28;20070;-67
2022/11/16 01:42:23;;;;;;;7.30;4.35;;;11.20;99.90;;;;;;4974764;28;20058;-67
2022/11/16 01:44:49;;;;;;;7.18;3.88;;;11.00;99.90;;;;;;4976381;28;20070;-67
2022/11/16 01:47:16;;;;;;;8.10;4.30;;;11.00;99.90;;;;;;4974609;28;20061;-67
2022/11/16 01:50:13;;;;;;;5.85;3.83;;;11.00;99.90;;;;;;4975809;28;20112;-67
2022/11/16 01:52:44;;;;;;;6.60;3.60;;;11.00;99.90;;;;;;4975827;28;20066;-67
2022/11/16 01:55:11;;;;;;;7.57;3.75;;;11.10;99.90;;;;;;4976055;28;20019;-67
2022/11/16 01:57:40;;;;;;;10.65;4.57;;;11.10;99.90;;;;;;4974759;28;20098;-67
2022/11/16 02:00:08;;;;;;;5.95;4.10;;;11.10;99.90;;;;;;4974935;28;20038;-67
2022/11/16 02:02:34;;;;;;;6.90;4.43;;;10.90;99.90;;;;;;4974471;28;20034;-67
2022/11/16 02:05:00;;;;;;;13.20;4.57;;;11.00;99.90;;;;;;4974516;28;20031;-67
2022/11/16 02:11:04;;;;;;;9.05;4.43;;;10.90;99.90;;;;;;4975707;28;20054;-67
2022/11/16 02:14:11;;;;;;;6.88;3.70;;;10.90;99.90;;;;;;4974780;28;20034;-67
2022/11/16 02:16:51;;;;;;;9.50;4.32;;;10.90;99.90;;;;;;4955773;28;20117;-67
2022/11/16 02:19:37;;;;;;;6.43;3.72;;;10.90;99.90;;;;;;4974019;28;20026;-67
2022/11/16 02:22:26;;;;;;;6.50;4.53;;;10.80;99.90;;;;;;4975505;28;20102;-67
2022/11/16 02:25:05;;;;;;;10.52;4.43;;;10.70;99.90;;;;;;4965838;28;20043;-67
2022/11/16 02:27:53;;;;;;;6.55;4.68;;;10.70;99.90;;;;;;4973931;28;20027;-67
2022/11/16 02:30:19;;;;;;;10.32;4.93;;;10.60;99.90;;;;;;4973669;28;20023;-67
2022/11/16 02:32:52;;;;;;;8.57;4.22;;;10.60;99.90;;;;;;4973733;28;20030;-67
2022/11/16 02:35:29;;;;;;;8.00;4.60;;;10.60;99.90;;;;;;4974099;28;20023;-67
2022/11/16 02:38:12;;;;;;;9.50;5.20;;;10.60;99.90;;;;;;4973687;28;20030;-67
2022/11/16 02:40:41;;;;;;;7.80;4.47;;;10.60;99.90;;;;;;4973723;28;20118;-67
2022/11/16 02:43:10;;;;;;;7.25;4.63;;;10.70;99.90;;;;;;4973854;28;20027;-67
2022/11/16 02:45:41;;;;;;;6.35;4.75;;;10.80;99.90;;;;;;4973757;28;20041;-67
2022/11/16 02:48:13;;;;;;;10.03;4.63;;;10.80;99.90;;;;;;4974255;28;20355;-67
2022/11/16 02:50:40;;;;;;;7.50;3.80;;;10.80;99.90;;;;;;4974040;28;20283;-67
2022/11/16 02:53:06;;;;;;;10.88;5.32;;;10.80;99.90;;;;;;4973476;28;20114;-67
2022/11/16 02:55:32;;;;;;;8.65;5.05;;;10.90;99.90;;;;;;4974846;28;20050;-67
2022/11/16 02:58:01;;;;;;;7.95;4.57;;;11.00;99.90;;;;;;4974843;28;20022;-67
2022/11/16 03:00:36;;;;;;;7.25;4.22;;;10.90;99.90;;;;;;4973305;28;20031;-67
2022/11/16 03:03:46;;;;;;;7.35;5.13;;;11.00;99.90;;;;;;4973292;28;20162;-67
2022/11/16 03:06:18;;;;;;;7.53;4.78;;;10.90;99.90;;;;;;4973504;28;20109;-67
2022/11/16 03:08:46;;;;;;;;;;;10.70;99.90;;;;;;4973909;28;20049;-67
2022/11/16 03:14:06;;;;;;;7.35;4.65;;;10.90;99.90;;;;;;4974809;28;20031;-67
2022/11/16 03:16:39;;;;;;;9.40;4.90;;;10.80;99.90;;;;;;4974489;28;20027;-67
2022/11/16 03:19:11;;;;;;;10.02;5.15;;;10.80;99.90;;;;;;4973174;28;20106;-67
2022/11/16 03:21:47;;;;;;;11.45;5.65;;;10.70;99.90;;;;;;4973063;28;20031;-67
2022/11/16 03:24:13;;;;;;;10.43;5.18;;;10.60;99.90;;;;;;4973877;28;20039;-67
2022/11/16 03:26:52;;;;;;;11.68;4.75;;;10.60;99.90;;;;;;4973881;28;20364;-67
2022/11/16 03:29:26;;;;;;;10.50;5.32;;;10.70;99.90;;;;;;4974241;28;20038;-67
2022/11/16 03:31:57;;;;;;;8.55;4.95;;;10.60;99.90;;;;;;4973765;28;20027;-67
2022/11/16 03:34:27;;;;;;;13.17;5.87;;;10.70;99.90;;;;;;4973737;28;20053;-67
2022/11/16 03:36:55;;;;;;;13.15;6.10;;;10.70;99.90;;;;;;4973343;28;20336;-67
2022/11/16 03:39:37;;;;;;;9.68;6.25;;;10.70;99.90;;;;;;4973236;28;20035;-67
2022/11/16 03:42:05;;;;;;;;;;;10.70;99.90;;;;;;4974581;28;20019;-67
2022/11/16 03:44:30;;;;;;;11.93;6.68;;;10.80;99.90;;;;;;4974031;28;19913;-67
2022/11/16 03:46:56;;;;;;;9.95;5.65;;;10.80;99.90;;;;;;4974159;28;20031;-67
2022/11/16 03:49:22;;;;;;;10.57;6.35;;;10.80;99.90;;;;;;4972788;28;20027;-67
2022/11/16 03:51:49;;;;;;;11.98;5.97;;;10.90;99.90;;;;;;4973109;28;20019;-67
2022/11/16 03:54:15;;;;;;;11.50;5.93;;;10.90;99.90;;;;;;4972683;28;20094;-67
2022/11/16 03:56:41;;;;;;;11.73;7.22;;;11.00;99.90;;;;;;4973083;28;20058;-67
2022/11/16 03:59:06;;;;;;;13.00;6.47;;;10.90;99.90;;;;;;4974128;28;20030;-67
2022/11/16 04:01:32;;;;;;;11.63;7.03;;;10.90;99.90;;;;;;4976585;28;20046;-67
2022/11/16 04:03:58;;;;;;;11.30;6.80;;;10.80;99.90;;;;;;4976451;28;20073;-67
2022/11/16 04:25:51;;;;;;;13.90;7.38;;;10.50;99.90;;;;;;4977486;28;20130;-67
2022/11/16 04:28:22;;;;;;;10.48;6.43;;;10.40;99.90;;;;;;4977330;28;20025;-67
2022/11/16 04:39:39;;;;;;;16.23;8.43;;;10.50;99.90;;;;;;4936612;29;20042;-67
2022/11/16 04:42:14;;;;;;;10.20;6.25;;;10.60;99.90;;;;;;4936896;29;20035;-67
2022/11/16 04:47:23;;;;;;;15.10;8.02;;;10.70;99.90;;;;;;4936934;29;20043;-67
2022/11/16 04:49:48;;;;;;;14.88;7.68;;;10.60;99.90;;;;;;4936413;29;20039;-67
2022/11/16 04:52:14;;;;;;;14.82;7.38;;;10.70;99.90;;;;;;4936390;29;20127;-67
2022/11/16 04:54:40;;;;;;;13.80;7.22;;;10.70;99.90;;;;;;4936192;28;20066;-67
2022/11/16 04:57:05;;;;;;;12.15;7.15;;;10.80;99.90;;;;;;4920528;29;20023;-67
2022/11/16 04:59:31;;;;;;;13.25;7.55;;;10.80;99.90;;;;;;4936191;29;20423;-67
2022/11/16 05:02:09;;;;;;;16.23;7.95;;;10.80;99.90;;;;;;4920449;29;20042;-67
2022/11/16 05:04:39;;;;;;;12.90;7.97;;;10.60;99.90;;;;;;4936036;28;20043;-67
2022/11/16 05:07:10;;;;;;;14.88;7.40;;;10.50;99.90;;;;;;4946935;28;20461;-67
2022/11/16 05:09:47;;;;;;;14.40;7.95;;;10.60;99.90;;;;;;4975719;28;20041;-67
2022/11/16 05:12:24;;;;;;;13.23;8.05;;;10.50;99.90;;;;;;4974782;28;20050;-67
2022/11/16 05:14:50;;;;;;;12.00;8.02;;;10.60;99.90;;;;;;4975494;28;20046;-67
2022/11/16 05:17:17;;;;;;;13.07;8.15;;;10.70;99.90;;;;;;4975230;28;20050;-67
2022/11/16 05:22:27;;;;;;;13.35;8.05;;;10.50;99.90;;;;;;4976809;28;20090;-67
2022/11/16 05:24:52;;;;;;;12.75;7.88;;;10.70;99.90;;;;;;4975019;28;20039;-67
2022/11/16 05:27:20;;;;;;;12.07;7.55;;;10.80;99.90;;;;;;4976192;28;20034;-67
2022/11/16 05:29:48;;;;;;;13.73;8.02;;;10.90;99.90;;;;;;4975699;28;20121;-67
2022/11/16 05:32:14;;;;;;;16.23;7.65;;;10.80;99.90;;;;;;4975165;28;20050;-67
2022/11/16 05:34:40;;;;;;;12.32;7.85;;;10.80;99.90;;;;;;4974868;28;20022;-67
2022/11/16 05:37:06;;;;;;;15.18;8.15;;;10.70;99.90;;;;;;4975083;28;20029;-67
2022/11/16 05:39:31;;;;;;;13.63;8.20;;;10.80;99.90;;;;;;4974732;28;20117;-67
2022/11/16 05:41:57;;;;;;;16.67;9.38;;;10.80;99.90;;;;;;4974723;28;20031;-67
2022/11/16 05:44:23;;;;;;;18.35;9.65;;;10.80;99.90;;;;;;4975650;28;20122;-67
2022/11/16 05:46:48;;;;;;;16.00;8.73;;;10.80;99.90;;;;;;4975908;28;20030;-67
2022/11/16 05:49:14;;;;;;;17.63;9.48;;;10.70;99.90;;;;;;4974472;28;20058;-67
2022/11/16 05:51:42;;;;;;;15.52;8.93;;;10.60;99.90;;;;;;4974532;28;20092;-67
2022/11/16 05:54:10;;;;;;;13.45;7.72;;;10.80;99.90;;;;;;4974441;28;20023;-67
2022/11/16 05:56:36;;;;;;;17.25;9.55;;;10.90;99.90;;;;;;4974489;28;20031;-67
2022/11/16 05:59:01;;;;;;;17.13;10.23;;;10.90;99.90;;;;;;4974339;28;20015;-67
2022/11/16 06:01:27;;;;;;;19.42;9.55;;;10.90;99.90;;;;;;4974427;28;20023;-67
2022/11/16 06:03:52;;;;;;;16.63;9.07;;;10.80;99.90;;;;;;4974749;28;20114;-67
2022/11/16 06:06:19;;;;;;;20.15;10.48;;;10.90;99.90;;;;;;4975812;28;20062;-67
2022/11/16 06:08:44;;;;;;;23.27;11.63;;;10.90;99.90;;;;;;4974236;28;20126;-67
2022/11/16 06:11:11;;;;;;;20.13;10.75;;;10.90;99.90;;;;;;4974228;28;20461;-67
2022/11/16 06:13:37;;;;;;;21.88;9.70;;;10.90;99.90;;;;;;4974084;28;20126;-67
2022/11/16 06:16:03;;;;;;;20.25;10.50;;;11.00;99.90;;;;;;4975254;28;20184;-67
2022/11/16 06:18:29;;;;;;;21.67;10.45;;;10.90;99.90;;;;;;4974058;28;20059;-67
2022/11/16 06:20:55;;;;;;;32.65;11.63;;;10.90;99.90;;;;;;4974337;28;20081;-67
2022/11/16 06:23:20;;;;;;;19.65;10.73;;;10.90;99.90;;;;;;4973804;28;20026;-67
2022/11/16 06:25:51;;;;;;;20.17;11.32;;;10.70;99.90;;;;;;4974303;28;20126;-67
2022/11/16 06:28:16;;;;;;;21.40;11.23;;;10.80;99.90;;;;;;4975613;28;20061;-67
2022/11/16 06:30:42;;;;;;;23.45;11.75;;;10.80;99.90;;;;;;4974038;28;20054;-67
2022/11/16 06:33:07;;;;;;;21.02;10.32;;;10.90;99.90;;;;;;4973848;28;20054;-67
2022/11/16 06:35:33;;;;;;;21.90;11.85;;;11.00;99.90;;;;;;4973802;28;20078;-67
2022/11/16 06:37:58;;;;;;;19.05;10.52;;;11.00;99.90;;;;;;4975079;28;20031;-67
2022/11/16 06:40:24;;;;;;;20.48;10.80;;;11.00;99.90;;;;;;4973693;28;20023;-67
2022/11/16 06:42:50;;;;;;;23.58;11.45;;;11.00;99.90;;;;;;4973751;28;20038;-67
2022/11/16 06:45:16;;;;;;;27.92;12.52;;;11.00;99.90;;;;;;4973656;28;20034;-67
2022/11/16 06:47:41;;;;;;;29.77;13.52;;;10.90;99.90;;;;;;4973719;28;20070;-67
2022/11/16 06:50:08;;;;;;;33.67;14.63;;;10.90;99.90;;;;;;4973500;28;20077;-67
2022/11/16 06:52:33;;;;;;;31.45;13.02;;;10.90;99.90;;;;;;4974723;28;20061;-67
2022/11/16 06:54:59;;;;;;;36.47;14.70;;;11.00;99.90;;;;;;4974604;28;20019;-67
2022/11/16 06:57:24;;;;;;;53.92;17.00;;;11.00;99.90;;;;;;4973517;28;20019;-67
2022/11/16 06:59:50;;;;;;;32.75;14.18;;;10.90;99.90;;;;;;4974926;28;20030;-67
2022/11/16 07:02:15;;;;;;;58.05;18.90;;;10.80;99.90;;;;;;4973463;28;20023;-67
2022/11/16 07:04:41;;;;;;;50.25;17.40;;;10.90;99.90;;;;;;4975389;28;20114;-67
2022/11/16 07:07:06;;;;;;;68.40;20.42;;;10.90;99.90;;;;;;4973619;28;20030;-67
2022/11/16 07:09:32;;;;;;;67.20;20.00;;;10.90;99.90;;;;;;4973347;28;20037;-67
2022/11/16 07:11:58;;;;;;;66.53;19.95;;;11.00;99.90;;;;;;4974879;28;20054;-67
2022/11/16 07:14:23;;;;;;;49.40;17.45;;;11.00;99.90;;;;;;4973809;28;20022;-67
2022/11/16 07:16:49;;;;;;;46.90;16.23;;;10.70;99.90;;;;;;4974197;28;20091;-67
2022/11/16 07:19:14;;;;;;;61.08;19.67;;;10.60;99.90;;;;;;4974618;28;20035;-67
2022/11/16 07:21:40;;;;;;;73.85;20.48;;;10.60;99.90;;;;;;4973319;28;20022;-67
2022/11/16 07:24:06;;;;;;;66.85;18.50;;;10.70;99.90;;;;;;4974368;28;20050;-67
2022/11/16 07:26:34;;;;;;;67.95;20.00;;;10.60;99.90;;;;;;4973098;28;20026;-67
2022/11/16 07:29:00;;;;;;;71.32;20.15;;;10.60;99.90;;;;;;4973108;28;20023;-67
2022/11/16 07:31:26;;;;;;;55.55;17.83;;;10.50;99.90;;;;;;4973410;28;20110;-67
2022/11/16 07:33:52;;;;;;;56.25;18.55;;;10.50;99.90;;;;;;4975559;28;20106;-67
2022/11/16 07:36:18;;;;;;;67.72;19.40;;;10.40;99.90;;;;;;4977747;28;20354;-67
2022/11/16 07:38:44;;;;;;;57.90;17.85;;;10.40;99.90;;;;;;4977101;28;20026;-67
2022/11/16 07:41:17;;;;;;;63.47;18.45;;;10.40;99.90;;;;;;4977104;28;20089;-67
2022/11/16 07:43:43;;;;;;;49.85;15.88;;;10.40;99.90;;;;;;4977000;28;20031;-67
2022/11/16 07:46:11;;;;;;;45.15;15.70;;;10.40;99.90;;;;;;4976815;28;20121;-67
2022/11/16 07:48:37;;;;;;;69.30;20.60;;;10.40;99.90;;;;;;4977552;28;20030;-67
2022/11/16 07:51:09;;;;;;;35.17;14.68;;;10.30;99.90;;;;;;4976659;28;20030;-67
2022/11/16 07:53:35;;;;;;;61.58;17.48;;;10.40;99.90;;;;;;4978202;28;20494;-66
2022/11/16 07:56:01;;;;;;;56.17;17.88;;;10.50;99.90;;;;;;4977932;28;20031;-66
2022/11/16 07:58:28;;;;;;;62.38;18.88;;;10.50;99.90;;;;;;4977011;28;20023;-66
2022/11/16 08:00:54;;;;;;;55.17;16.65;;;10.50;99.90;;;;;;4977666;28;20037;-66
2022/11/16 08:03:20;;;;;;;25.05;11.40;;;10.70;99.90;;;;;;4976752;28;20113;-66
2022/11/16 08:05:46;;;;;;;21.85;10.55;;;10.80;99.90;;;;;;4976765;28;20026;-66
2022/11/16 08:08:12;;;;;;;31.63;12.95;;;10.90;99.90;;;;;;4976503;28;20065;-67
2022/11/16 08:10:37;;;;;;;31.08;12.65;;;11.00;99.90;;;;;;4977596;28;20113;-66
2022/11/16 08:13:04;;;;;;;30.77;11.80;;;11.10;99.90;;;;;;4976461;28;20062;-66
2022/11/16 08:15:30;;;;;;;29.10;12.85;;;11.10;99.90;;;;;;4977571;28;20118;-66
2022/11/16 08:17:58;;;;;;;25.83;11.40;;;11.10;99.90;;;;;;4977513;28;20101;-67
2022/11/16 08:20:23;;;;;;;18.60;8.65;;;11.20;99.90;;;;;;4977452;28;20031;-66
2022/11/16 08:22:49;;;;;;;10.40;6.97;;;11.20;99.90;;;;;;4977378;28;20080;-65
2022/11/16 08:25:15;;;;;;;18.83;9.07;;;11.20;99.90;;;;;;4976027;28;20074;-65
2022/11/16 08:27:40;;;;;;;14.15;8.25;;;11.30;99.90;;;;;;4976100;28;20027;-65
2022/11/16 08:30:08;;;;;;;11.07;6.72;;;11.40;99.90;;;;;;4976324;28;20501;-65
2022/11/16 08:32:35;;;;;;;19.42;8.10;;;11.50;99.90;;;;;;4975976;28;20093;-66
2022/11/16 08:35:01;;;;;;;18.85;6.63;;;11.50;99.90;;;;;;4976038;28;20026;-66
2022/11/16 08:37:27;;;;;;;8.55;4.82;;;11.50;99.90;;;;;;4975961;28;20023;-66
2022/11/16 08:39:54;;;;;;;8.80;3.95;;;11.50;99.90;;;;;;4975854;28;20031;-66
2022/11/16 08:42:20;;;;;;;7.65;4.00;;;11.60;99.90;;;;;;4975838;28;20493;-66
2022/11/16 08:44:45;;;;;;;6.90;3.67;;;11.80;99.90;;;;;;4975452;28;20039;-66
2022/11/16 08:47:11;;;;;;;5.03;2.75;;;11.80;99.90;;;;;;4975701;28;20058;-65
2022/11/16 08:49:40;;;;;;;4.10;2.60;;;12.00;99.90;;;;;;4976830;28;20032;-65
2022/11/16 08:52:05;;;;;;;6.13;3.00;;;12.10;99.90;;;;;;4976904;28;20034;-65
2022/11/16 08:54:31;;;;;;;8.20;2.85;;;12.10;99.90;;;;;;4976389;28;20030;-65
2022/11/16 08:56:57;;;;;;;7.88;2.63;;;12.20;99.90;;;;;;4977307;28;20033;-65
2022/11/16 08:59:22;;;;;;;7.05;3.22;;;12.20;99.90;;;;;;4975537;28;20022;-65
2022/11/16 09:01:51;;;;;;;4.95;2.40;;;12.20;99.90;;;;;;4976637;28;20482;-65
2022/11/16 09:04:17;;;;;;;6.63;1.75;;;12.20;99.90;;;;;;4975366;28;20117;-66
2022/11/16 09:06:43;;;;;;;3.88;1.60;;;12.30;99.90;;;;;;4975492;28;20038;-66
2022/11/16 09:09:09;;;;;;;4.22;2.08;;;12.30;99.90;;;;;;4975157;28;20027;-65
2022/11/16 09:11:35;;;;;;;2.70;1.35;;;12.40;99.90;;;;;;4976572;28;20022;-66
2022/11/16 09:14:00;;;;;;;6.75;1.50;;;12.40;99.90;;;;;;4976682;28;20025;-66
2022/11/16 09:16:26;;;;;;;6.35;0.90;;;12.40;99.90;;;;;;4976403;28;20058;-67
2022/11/16 09:18:52;;;;;;;9.00;1.48;;;12.40;99.90;;;;;;4975222;28;20027;-67
2022/11/16 09:21:23;;;;;;;5.95;1.73;;;12.40;99.90;;;;;;4975193;28;20077;-67
2022/11/16 09:23:49;;;;;;;4.40;0.70;;;12.50;99.90;;;;;;4975634;28;20062;-67
2022/11/16 09:26:19;;;;;;;5.78;1.13;;;12.50;99.90;;;;;;4976244;28;20047;-67
2022/11/16 09:28:45;;;;;;;5.90;1.20;;;12.50;99.90;;;;;;4975861;28;20033;-67
2022/11/16 09:31:10;;;;;;;8.13;1.23;;;12.40;99.90;;;;;;4974956;28;20121;-67
2022/11/16 09:33:36;;;;;;;4.18;1.10;;;12.50;99.90;;;;;;4975280;28;20031;-67
2022/11/16 09:36:07;;;;;;;4.80;1.30;;;12.60;99.90;;;;;;4974891;28;20019;-67
2022/11/16 09:38:34;;;;;;;5.00;1.10;;;12.50;99.90;;;;;;4974872;28;20022;-67
2022/11/16 09:41:13;;;;;;;5.05;1.30;;;12.50;99.90;;;;;;4975100;28;20027;-67
2022/11/16 09:43:52;;;;;;;2.83;0.88;;;12.40;99.90;;;;;;4974768;28;20035;-67
2022/11/16 09:46:47;;;;;;;10.77;1.48;;;12.40;99.90;;;;;;4976272;28;20023;-67
2022/11/16 09:49:17;;;;;;;2.58;0.80;;;12.40;99.90;;;;;;4975832;28;20512;-67
2022/11/16 09:51:46;;;;;;;3.75;0.88;;;12.50;99.90;;;;;;4974591;28;20090;-67
2022/11/16 09:54:18;;;;;;;5.15;0.82;;;12.50;99.90;;;;;;4975972;28;20081;-67
2022/11/16 09:56:47;;;;;;;5.80;1.30;;;12.70;99.90;;;;;;4975236;28;20023;-67
2022/11/16 09:59:26;;;;;;;2.67;0.93;;;12.80;99.90;;;;;;4975722;28;20022;-67
2022/11/16 10:01:51;;;;;;;5.30;1.08;;;13.00;99.90;;;;;;4974399;28;20085;-67
2022/11/16 10:04:37;;;;;;;3.05;0.93;;;13.00;99.90;;;;;;4974930;28;20030;-67
2022/11/16 10:07:18;;;;;;;7.78;1.00;;;13.00;99.90;;;;;;4974353;28;20034;-67
2022/11/16 10:09:45;;;;;;;7.22;1.42;;;13.00;99.90;;;;;;4974143;28;20035;-67
2022/11/16 10:12:20;;;;;;;4.57;1.05;;;13.00;99.90;;;;;;4975799;28;20047;-67
2022/11/16 10:14:56;;;;;;;8.07;1.02;;;13.10;99.90;;;;;;4974247;28;20078;-67
2022/11/16 10:17:34;;;;;;;4.82;1.52;;;13.30;99.90;;;;;;4974041;28;20018;-67
2022/11/16 10:20:15;;;;;;;4.60;1.10;;;13.50;99.90;;;;;;4975677;28;20101;-67
2022/11/16 10:22:47;;;;;;;3.47;1.30;;;13.60;99.90;;;;;;4973969;28;20114;-67
2022/11/16 10:25:25;;;;;;;2.78;0.80;;;13.80;99.90;;;;;;4975199;28;20030;-67
2022/11/16 10:28:07;;;;;;;3.95;1.13;;;13.80;99.90;;;;;;4974862;28;20031;-68
2022/11/16 10:30:42;;;;;;;8.25;1.05;;;13.90;99.90;;;;;;4974174;28;20085;-68
2022/11/16 10:33:15;;;;;;;5.15;0.98;;;13.90;99.90;;;;;;4973913;28;20038;-69
2022/11/16 10:35:46;;;;;;;3.55;0.70;;;13.80;99.90;;;;;;4974525;28;20027;-69
2022/11/16 10:38:16;;;;;;;6.78;1.27;;;13.70;99.90;;;;;;4975517;28;20022;-69
2022/11/16 10:40:44;;;;;;;8.70;1.42;;;13.60;99.90;;;;;;4974013;28;20062;-69
2022/11/16 10:43:19;;;;;;;4.05;0.80;;;13.50;99.90;;;;;;4974187;28;20026;-69
2022/11/16 10:45:56;;;;;;;9.35;1.02;;;13.50;99.90;;;;;;4973582;28;20060;-69
2022/11/16 10:48:22;;;;;;;4.45;0.90;;;13.60;99.90;;;;;;4974542;28;20031;-69
2022/11/16 10:50:50;;;;;;;4.30;0.90;;;13.60;99.90;;;;;;4974606;28;20033;-69
2022/11/16 10:53:28;;;;;;;5.55;1.67;;;13.60;99.90;;;;;;4975057;28;20101;-69
2022/11/16 10:56:31;;;;;;;4.88;1.15;;;13.60;99.90;;;;;;4973469;28;20023;-69
2022/11/16 10:59:00;;;;;;;4.65;0.90;;;13.50;99.90;;;;;;4972822;28;20031;-69
2022/11/16 11:01:28;;;;;;;7.65;1.08;;;13.40;99.90;;;;;;4974623;28;20030;-69
2022/11/16 11:03:53;;;;;;;3.38;0.93;;;13.50;99.90;;;;;;4974354;28;20037;-69
2022/11/16 11:06:23;;;;;;;1.85;0.70;;;13.60;99.90;;;;;;4973436;28;20117;-69
2022/11/16 11:08:49;;;;;;;3.40;0.98;;;13.50;99.90;;;;;;4973661;28;20384;-69
2022/11/16 11:14:15;;;;;;;3.05;0.90;;;13.80;99.90;;;;;;4975227;28;20034;-69
2022/11/16 11:16:41;;;;;;;5.00;1.23;;;13.70;99.90;;;;;;4973332;28;20031;-69
2022/11/16 11:19:24;;;;;;;5.45;1.27;;;13.80;99.90;;;;;;4973238;28;20109;-69
2022/11/16 11:21:58;;;;;;;7.68;1.17;;;13.80;99.90;;;;;;4974537;28;20023;-68
2022/11/16 11:24:25;;;;;;;3.92;1.13;;;13.90;99.90;;;;;;4973959;28;20031;-68
2022/11/16 11:27:00;;;;;;;6.40;1.10;;;13.90;99.90;;;;;;4973891;28;20378;-68
2022/11/16 11:29:35;;;;;;;6.47;1.15;;;13.90;99.90;;;;;;4974366;28;20030;-69
2022/11/16 11:32:06;;;;;;;9.05;1.23;;;13.90;99.90;;;;;;4974486;28;20525;-69
2022/11/16 11:34:40;;;;;;;4.07;0.80;;;14.00;99.90;;;;;;4974452;28;20035;-69
2022/11/16 11:37:16;;;;;;;5.10;0.88;;;14.00;99.90;;;;;;4973807;28;20442;-69
2022/11/16 11:39:42;;;;;;;8.23;1.55;;;13.90;99.90;;;;;;4974464;28;20090;-69
2022/11/16 11:42:13;;;;;;;8.68;1.60;;;13.80;99.90;;;;;;4973370;28;20031;-69
2022/11/16 11:44:50;;;;;;;7.03;1.30;;;13.70;99.90;;;;;;4973728;28;20027;-68
2022/11/16 11:47:38;;;;;;;4.50;1.20;;;13.70;99.90;;;;;;4974258;28;20042;-68
2022/11/16 11:50:10;;;;;;;4.75;1.20;;;13.70;99.90;;;;;;4974230;28;20050;-67
2022/11/16 11:52:41;;;;;;;7.95;1.38;;;13.60;99.90;;;;;;4973462;28;20033;-67
2022/11/16 11:55:07;;;;;;;2.70;1.00;;;13.50;99.90;;;;;;4974629;28;20135;-67
2022/11/16 11:57:41;;;;;;;4.22;0.70;;;13.40;99.90;;;;;;4972858;28;20042;-67
2022/11/16 12:00:08;;;;;;;8.80;1.48;;;13.30;99.90;;;;;;4974399;28;20027;-67
2022/11/16 12:03:06;;;;;;;4.72;1.05;;;13.40;99.90;;;;;;4973881;28;20026;-67
2022/11/16 12:05:48;;;;;;;4.63;0.95;;;13.30;99.90;;;;;;4972785;28;20023;-67
2022/11/16 12:08:30;;;;;;;3.67;0.95;;;13.30;99.90;;;;;;4972864;28;20023;-67
2022/11/16 12:11:23;;;;;;;6.03;1.02;;;13.30;99.90;;;;;;4973240;28;20023;-67
2022/11/16 12:14:04;;;;;;;11.13;1.38;;;13.40;99.90;;;;;;4974641;28;20023;-67
2022/11/16 12:16:47;;;;;;;6.72;1.30;;;13.30;99.90;;;;;;4974057;28;20026;-67
2022/11/16 12:19:37;;;;;;;3.83;0.90;;;13.20;99.90;;;;;;4974004;28;20030;-67
2022/11/16 12:22:14;;;;;;;5.72;1.00;;;13.20;99.90;;;;;;4977247;28;20050;-66
2022/11/16 12:24:58;;;;;;;21.15;1.60;;;13.10;99.90;;;;;;4977852;28;20434;-67
2022/11/16 12:27:53;;;;;;;3.65;1.20;;;12.90;99.90;;;;;;4977484;28;20031;-66
2022/11/16 12:30:23;;;;;;;8.05;1.52;;;12.90;99.90;;;;;;4976550;28;20027;-66
2022/11/16 12:33:09;;;;;;;6.65;1.05;;;12.80;99.90;;;;;;4976112;28;20026;-66
2022/11/16 12:35:54;;;;;;;5.40;1.00;;;12.90;99.90;;;;;;4976057;28;20050;-66
2022/11/16 12:38:26;;;;;;;11.35;1.52;;;13.00;99.90;;;;;;4977177;28;20030;-67
2022/11/16 12:41:01;;;;;;;6.45;1.00;;;13.10;99.90;;;;;;4975989;28;20027;-66
2022/11/16 12:43:32;;;;;;;4.75;0.95;;;13.20;99.90;;;;;;4976155;28;20042;-66
2022/11/16 12:46:16;;;;;;;7.60;1.10;;;13.50;99.90;;;;;;4975952;28;20034;-66
2022/11/16 12:48:42;;;;;;;8.85;1.55;;;13.80;99.90;;;;;;4977381;28;20061;-67
2022/11/16 12:51:07;;;;;;;8.55;1.25;;;13.80;99.90;;;;;;4975751;28;20054;-67
2022/11/16 12:53:45;;;;;;;6.50;1.23;;;13.70;99.90;;;;;;4976351;28;20023;-66
2022/11/16 12:56:22;;;;;;;4.15;1.00;;;13.70;99.90;;;;;;4975703;28;20027;-67
2022/11/16 12:59:02;;;;;;;5.88;1.30;;;13.60;99.90;;;;;;4977156;28;20027;-66
2022/11/16 13:02:11;;;;;;;7.05;0.88;;;13.30;99.90;;;;;;4977427;28;20037;-66
2022/11/16 13:04:44;;;;;;;4.55;0.82;;;13.20;99.90;;;;;;4920260;29;20039;-66
2022/11/16 13:07:21;;;;;;;5.25;0.93;;;13.30;99.90;;;;;;4936821;29;20030;-66
2022/11/16 13:09:59;;;;;;;5.80;1.38;;;13.40;99.90;;;;;;4936411;29;20036;-66
2022/11/16 13:12:26;;;;;;;4.00;1.20;;;13.30;99.90;;;;;;4936240;29;20024;-66
2022/11/16 13:14:54;;;;;;;11.02;1.73;;;13.10;99.90;;;;;;4936439;29;20040;-66
2022/11/16 13:17:24;;;;;;;9.55;1.77;;;13.00;99.90;;;;;;4920040;29;20614;-66
2022/11/16 13:20:06;;;;;;;6.18;1.77;;;13.00;99.90;;;;;;4920333;29;20031;-68
2022/11/16 13:22:35;;;;;;;3.30;1.10;;;13.20;99.90;;;;;;4936441;29;20046;-68
2022/11/16 13:25:23;;;;;;;4.00;1.10;;;13.10;99.90;;;;;;4920078;29;20046;-68
2022/11/16 13:28:14;;;;;;;8.73;1.63;;;13.00;99.90;;;;;;4935966;29;20091;-68
2022/11/16 13:30:47;;;;;;;5.55;1.15;;;12.90;99.90;;;;;;4919432;29;20083;-68
2022/11/16 13:33:43;;;;;;;6.25;1.10;;;13.00;99.90;;;;;;4935604;29;20028;-68
2022/11/16 13:36:36;;;;;;;6.20;1.55;;;13.00;99.90;;;;;;4935620;29;20055;-68
2022/11/16 13:39:03;;;;;;;10.68;1.40;;;13.00;99.90;;;;;;4935720;29;20071;-68
2022/11/16 13:41:39;;;;;;;6.57;1.40;;;13.00;99.90;;;;;;4958033;28;20035;-68